createdAt,value
2018-12-26T00:04:06.105Z,13.87
2018-12-26T00:09:13.660Z,13.67
2018-12-26T00:14:27.687Z,14.03
2018-12-26T00:19:35.096Z,14.97
2018-12-26T00:24:49.205Z,16.77
2018-12-26T00:29:57.295Z,16.03
2018-12-26T00:35:11.286Z,16.57
2018-12-26T00:40:24.904Z,16.53
2018-12-26T00:45:19.599Z,17.20
2018-12-26T00:50:33.593Z,18.10
2018-12-26T00:55:41.742Z,15.70
2018-12-26T01:00:49.033Z,16.00
2018-12-26T01:06:03.079Z,16.83
2018-12-26T01:11:09.993Z,13.80
2018-12-26T01:16:24.511Z,14.43
2018-12-26T01:21:31.280Z,17.13
2018-12-26T01:26:45.258Z,17.00
2018-12-26T01:31:58.354Z,16.37
2018-12-26T01:37:06.199Z,17.87
2018-12-26T01:42:20.178Z,17.43
2018-12-26T01:47:27.979Z,15.70
2018-12-26T01:52:47.441Z,15.87
2018-12-26T01:58:01.414Z,15.43
2018-12-26T02:03:33.558Z,19.40
2018-12-26T02:14:20.505Z,19.00
2018-12-26T02:19:34.491Z,17.07
2018-12-26T02:24:42.279Z,16.23
2018-12-26T02:29:56.253Z,19.03
2018-12-26T02:35:03.917Z,18.20
2018-12-26T02:40:17.901Z,17.07
2018-12-26T02:45:25.706Z,16.93
2018-12-26T02:50:39.859Z,17.27
2018-12-26T02:55:47.527Z,18.27
2018-12-26T03:01:01.506Z,17.40
2018-12-26T03:18:01.361Z,15.93
2018-12-26T03:23:09.586Z,17.70
2018-12-26T03:28:04.217Z,18.90
2018-12-26T03:33:18.217Z,20.07
2018-12-26T03:38:26.681Z,21.07
2018-12-26T03:43:40.680Z,21.13
2018-12-26T03:48:54.086Z,22.83
2018-12-26T03:54:01.952Z,22.40
2018-12-26T03:59:15.995Z,23.10
2018-12-26T04:04:23.168Z,21.00
2018-12-26T04:09:37.225Z,25.60
2018-12-26T04:14:44.614Z,24.90
2018-12-26T04:19:58.858Z,23.10
2018-12-26T04:25:06.336Z,25.30
2018-12-26T04:30:20.326Z,23.13
2018-12-26T04:35:27.982Z,24.70
2018-12-26T04:40:41.972Z,23.53
2018-12-26T04:45:49.403Z,23.83
2018-12-26T04:50:44.038Z,25.37
2018-12-26T04:55:51.427Z,24.43
2018-12-26T05:01:05.468Z,23.97
2018-12-26T05:06:12.497Z,26.97
2018-12-26T05:11:26.604Z,22.90
2018-12-26T05:16:43.063Z,21.50
2018-12-26T05:21:51.085Z,24.67
2018-12-26T05:27:05.133Z,20.97
2018-12-26T05:32:13.374Z,23.97
2018-12-26T05:37:27.367Z,26.53
2018-12-26T05:42:59.384Z,24.57
2018-12-26T05:48:13.041Z,24.27
2018-12-26T05:53:20.941Z,22.80
2018-12-26T05:58:15.573Z,23.07
2018-12-26T06:03:47.651Z,23.83
2018-12-26T06:08:54.235Z,21.83
2018-12-26T06:14:08.198Z,23.37
2018-12-26T06:19:19.450Z,26.47
2018-12-26T06:30:15.226Z,26.20
2018-12-26T06:41:37.823Z,27.47
2018-12-26T06:46:51.796Z,25.33
2018-12-26T07:02:54.240Z,24.43
2018-12-26T07:08:08.235Z,25.87
2018-12-26T07:13:16.333Z,23.13
2018-12-26T07:18:30.312Z,25.40
2018-12-26T07:23:38.179Z,24.40
2018-12-26T07:28:52.163Z,26.83
2018-12-26T07:33:59.467Z,25.00
2018-12-26T07:39:13.448Z,26.63
2018-12-26T07:44:21.813Z,30.83
2018-12-26T07:49:35.800Z,27.33
2018-12-26T07:54:44.197Z,24.77
2018-12-26T07:59:58.190Z,26.23
2018-12-26T08:05:06.241Z,23.93
2018-12-26T08:10:20.231Z,25.27
2018-12-26T08:15:28.376Z,26.60
2018-12-26T08:20:42.378Z,26.33
2018-12-26T08:25:50.151Z,27.17
2018-12-26T08:31:04.130Z,27.13
2018-12-26T08:36:11.947Z,27.83
2018-12-26T08:41:25.932Z,26.60
2018-12-26T08:46:33.684Z,25.40
2018-12-26T08:51:44.715Z,24.03
2018-12-26T08:56:52.996Z,25.17
2018-12-26T09:02:06.984Z,25.07
2018-12-26T09:07:15.128Z,26.30
2018-12-26T09:12:29.108Z,26.77
2018-12-26T09:17:37.293Z,25.17
2018-12-26T09:22:51.305Z,23.57
2018-12-26T09:27:59.662Z,23.93
2018-12-26T09:33:13.704Z,23.00
2018-12-26T09:38:21.169Z,23.57
2018-12-26T09:43:35.158Z,24.80
2018-12-26T09:48:41.716Z,22.77
2018-12-26T09:59:14.142Z,22.70
2018-12-26T10:04:21.367Z,23.63
2018-12-26T10:09:35.371Z,31.60
2018-12-26T10:14:43.842Z,24.37
2018-12-26T10:19:57.853Z,23.10
2018-12-26T10:25:05.806Z,22.80
2018-12-26T10:30:19.794Z,23.63
2018-12-26T10:35:36.600Z,23.07
2018-12-26T10:40:44.697Z,22.17
2018-12-26T10:45:58.679Z,23.57
2018-12-26T10:51:06.298Z,22.20
2018-12-26T10:56:23.935Z,21.40
2018-12-26T11:01:31.107Z,21.60
2018-12-26T11:06:45.109Z,20.90
2018-12-26T11:11:56.255Z,20.47
2018-12-26T11:17:10.331Z,21.00
2018-12-26T11:22:18.478Z,20.93
2018-12-26T11:27:32.454Z,22.70
2018-12-26T11:32:45.665Z,20.50
2018-12-26T11:37:53.512Z,20.57
2018-12-26T11:43:07.514Z,20.13
2018-12-26T11:48:23.552Z,21.07
2018-12-26T11:53:40.069Z,20.63
2018-12-26T11:58:34.679Z,21.57
2018-12-26T12:03:48.723Z,23.27
2018-12-26T12:09:05.103Z,21.83
2018-12-26T12:19:58.168Z,22.50
2018-12-26T12:25:05.806Z,22.03
2018-12-26T12:30:19.785Z,21.67
2018-12-26T12:46:52.696Z,22.07
2018-12-26T12:52:06.708Z,21.27
2018-12-26T12:57:01.491Z,22.47
2018-12-26T13:02:17.658Z,21.77
2018-12-26T13:07:31.150Z,23.90
2018-12-26T13:12:39.154Z,22.73
2018-12-26T13:17:53.141Z,20.90
2018-12-26T13:23:00.537Z,21.77
2018-12-26T13:28:14.524Z,21.90
2018-12-26T13:33:22.678Z,20.90
2018-12-26T13:38:36.673Z,20.97
2018-12-26T13:43:31.377Z,19.90
2018-12-26T13:48:45.360Z,21.90
2018-12-26T13:53:59.361Z,20.33
2018-12-26T13:59:15.884Z,20.40
2018-12-26T14:04:23.332Z,22.17
2018-12-26T14:09:38.190Z,20.23
2018-12-26T14:14:47.443Z,21.30
2018-12-26T14:20:01.416Z,21.70
2018-12-26T14:25:08.804Z,22.87
2018-12-26T14:30:10.887Z,20.57
2018-12-26T14:35:19.440Z,21.77
2018-12-26T14:40:14.170Z,24.10
2018-12-26T14:51:04.578Z,22.90
2018-12-26T14:56:18.600Z,22.67
2018-12-26T15:01:29.412Z,21.57
2018-12-26T15:06:43.402Z,23.57
2018-12-26T15:11:51.742Z,23.27
2018-12-26T15:17:05.966Z,23.73
2018-12-26T15:22:13.452Z,22.27
2018-12-26T15:27:27.437Z,27.07
2018-12-26T15:32:35.901Z,26.53
2018-12-26T15:37:49.954Z,25.83
2018-12-26T15:42:58.299Z,27.70
2018-12-26T15:48:12.268Z,22.63
2018-12-26T15:58:57.333Z,25.30
2018-12-26T16:03:51.975Z,24.80
2018-12-26T16:09:06.890Z,29.33
2018-12-26T16:14:20.257Z,25.80
2018-12-26T16:24:46.380Z,24.37
2018-12-26T16:30:00.444Z,27.10
2018-12-26T16:34:55.060Z,27.17
2018-12-26T16:46:19.946Z,28.10
2018-12-26T16:51:33.942Z,32.10
2018-12-26T16:56:42.981Z,29.23
2018-12-26T17:01:56.974Z,30.70
2018-12-26T17:07:06.037Z,28.97
2018-12-26T17:13:07.412Z,28.87
2018-12-26T17:18:15.035Z,31.83
2018-12-26T17:23:26.208Z,30.53
2018-12-26T17:28:40.183Z,29.73
2018-12-26T17:33:47.545Z,31.93
2018-12-26T17:39:01.527Z,31.07
2018-12-26T17:44:10.831Z,30.23
2018-12-26T17:49:24.813Z,33.10
2018-12-26T18:05:52.732Z,33.33
2018-12-26T18:11:00.136Z,32.30
2018-12-26T18:16:14.198Z,33.60
2018-12-26T18:21:20.816Z,34.23
2018-12-26T18:26:34.812Z,34.50
2018-12-26T18:31:41.313Z,33.93
2018-12-26T18:37:13.385Z,32.77
2018-12-26T18:42:20.333Z,32.23
2018-12-26T18:47:34.351Z,33.80
2018-12-26T18:52:41.734Z,33.77
2018-12-26T18:57:55.730Z,37.83
2018-12-26T19:03:03.667Z,36.57
2018-12-26T19:08:17.683Z,37.10
2018-12-26T19:13:25.117Z,36.57
2018-12-26T19:18:39.200Z,36.10
2018-12-26T19:23:47.611Z,34.70
2018-12-26T19:29:05.842Z,37.63
2018-12-26T19:34:19.836Z,36.80
2018-12-26T19:39:27.696Z,37.77
2018-12-26T19:44:41.679Z,35.00
2018-12-26T19:49:48.523Z,37.73
2018-12-26T19:55:02.533Z,35.07
2018-12-26T20:05:45.786Z,37.30
2018-12-26T20:10:59.831Z,36.93
2018-12-26T20:16:07.512Z,37.63
2018-12-26T20:21:21.511Z,38.10
2018-12-26T20:26:38.387Z,35.70
2018-12-26T20:31:46.149Z,36.97
2018-12-26T20:36:40.765Z,36.47
2018-12-26T20:41:48.666Z,37.57
2018-12-26T20:47:04.698Z,38.77
2018-12-26T20:52:12.387Z,40.90
2018-12-26T20:57:26.385Z,36.23
2018-12-26T21:02:34.255Z,35.90
2018-12-26T21:07:48.243Z,38.40
2018-12-26T21:12:55.457Z,37.63
2018-12-26T21:18:09.442Z,42.00
2018-12-26T21:23:16.486Z,36.23
2018-12-26T21:28:30.561Z,40.63
2018-12-26T21:33:37.768Z,41.57
2018-12-26T21:38:50.293Z,42.27
2018-12-26T21:43:58.292Z,41.50
2018-12-26T21:49:12.265Z,41.00
2018-12-26T21:54:23.202Z,41.40
2018-12-26T21:59:37.193Z,39.77
2018-12-26T22:04:45.444Z,41.33
2018-12-26T22:09:59.448Z,41.83
2018-12-26T22:14:54.140Z,41.90
2018-12-26T22:19:48.759Z,42.50
2018-12-26T22:25:02.734Z,43.43
2018-12-26T22:30:53.975Z,42.13
2018-12-26T22:36:08.662Z,43.77
2018-12-26T22:41:17.165Z,43.00
2018-12-26T22:46:28.117Z,47.60
2018-12-26T22:51:42.176Z,43.97
2018-12-26T22:56:49.230Z,47.40
2018-12-26T23:07:18.392Z,48.70
2018-12-26T23:12:32.384Z,45.83
2018-12-26T23:17:40.654Z,47.87
2018-12-26T23:23:30.562Z,48.80
2018-12-26T23:34:46.959Z,50.50
2018-12-26T23:40:01.018Z,45.60
2018-12-26T23:45:07.527Z,48.33
2018-12-26T23:50:21.507Z,49.33
2018-12-26T23:55:16.129Z,47.60
